Time;durP1;ratioP1;P1;durP2;ratioP2;P2;SDS_P1;SDS_P2;PMS_P1;PMS_P2;Temp;Humidity;BMP_temperature;BMP_pressure;BME280_temperature;BME280_humidity;BME280_pressure;Samples;Min_cycle;Max_cycle;Signal;HPM_P1;HPM_P2
2023/10/17 00:01:33;;;;;;;13.20;9.18;;;;;;;6.51;77.65;99295.78;5002059;28;20366;-79
2023/10/17 00:04:26;;;;;;;13.90;9.90;;;;;;;6.45;77.15;99293.97;5006418;28;20040;-80
2023/10/17 00:06:53;;;;;;;14.82;8.85;;;;;;;6.48;77.40;99298.84;5023044;28;20453;-80
2023/10/17 00:09:22;;;;;;;14.68;9.50;;;;;;;6.35;77.61;99289.13;5019663;28;20065;-80
2023/10/17 00:14:27;;;;;;;11.32;9.23;;;;;;;6.41;77.47;99300.72;5025077;28;20037;-80
2023/10/17 00:16:55;;;;;;;13.35;8.48;;;;;;;6.52;77.26;99302.72;5005657;28;20072;-80
2023/10/17 00:19:28;;;;;;;12.05;8.40;;;;;;;6.47;77.28;99300.69;5004170;28;20034;-80
2023/10/17 00:21:53;;;;;;;14.35;8.88;;;;;;;6.47;76.45;99300.69;5025112;28;20029;-80
2023/10/17 00:24:19;;;;;;;13.02;9.30;;;;;;;6.34;76.77;99287.47;5006933;28;20225;-80
2023/10/17 00:26:47;;;;;;;12.13;8.88;;;;;;;6.29;77.17;99295.25;4990111;28;20030;-80
2023/10/17 00:29:14;;;;;;;11.32;7.70;;;;;;;6.35;76.63;99304.22;5014849;28;20111;-80
2023/10/17 00:31:40;;;;;;;11.57;8.77;;;;;;;6.30;76.71;99311.97;5030735;28;20040;-80
2023/10/17 00:39:30;;;;;;;13.35;8.75;;;;;;;6.21;76.96;99294.66;5014714;28;22263;-80
2023/10/17 00:44:36;;;;;;;12.38;9.25;;;;;;;6.26;77.11;99287.72;5026962;28;20040;-80
2023/10/17 00:47:04;;;;;;;16.13;8.90;;;;;;;6.21;77.33;99292.00;5009329;28;20036;-80
2023/10/17 00:49:45;;;;;;;11.50;9.15;;;;;;;6.19;76.96;99271.03;5008447;28;20124;-80
2023/10/17 00:52:18;;;;;;;14.45;8.98;;;;;;;6.28;76.70;99282.22;4980442;28;20082;-80
2023/10/17 00:54:45;;;;;;;11.55;8.95;;;;;;;6.15;77.14;99272.47;5006669;28;20029;-80
2023/10/17 00:57:13;;;;;;;14.80;9.50;;;;;;;6.17;77.22;99274.91;5011212;28;20037;-80
2023/10/17 00:59:49;;;;;;;13.20;9.27;;;;;;;6.23;77.02;99271.41;5029588;28;20089;-80
2023/10/17 01:02:15;;;;;;;17.23;9.75;;;;;;;6.16;76.88;99268.00;5008810;28;20548;-80
2023/10/17 01:04:44;;;;;;;11.50;8.82;;;;;;;6.19;76.55;99272.88;5031048;28;20400;-80
2023/10/17 01:07:23;;;;;;;15.02;10.20;;;;;;;6.19;77.28;99271.03;5007416;28;20504;-80
2023/10/17 01:09:51;;;;;;;11.88;9.68;;;;;;;6.17;77.62;99270.44;5015042;28;20033;-80
2023/10/17 01:12:17;;;;;;;23.40;10.23;;;;;;;6.13;77.20;99265.75;4986405;28;20064;-80
2023/10/17 01:14:42;;;;;;;12.05;9.77;;;;;;;6.12;77.21;99267.59;5026422;28;20073;-80
2023/10/17 01:17:08;;;;;;;16.90;9.85;;;;;;;6.15;77.66;99267.19;5008474;28;20071;-80
2023/10/17 01:19:35;;;;;;;13.85;9.98;;;;;;;6.19;76.77;99262.25;5024069;28;20034;-80
2023/10/17 01:22:00;;;;;;;20.92;10.77;;;;;;;6.14;77.16;99243.56;5027573;28;20022;-80
2023/10/17 01:24:26;;;;;;;23.50;10.50;;;;;;;6.11;77.80;99250.06;4982375;28;20566;-80
2023/10/17 01:26:55;;;;;;;23.23;12.45;;;;;;;6.19;78.46;99257.78;5012444;28;20025;-80
2023/10/17 01:29:21;;;;;;;24.83;13.00;;;;;;;6.19;78.49;99251.66;5027372;28;20042;-81
2023/10/17 01:31:48;;;;;;;24.73;13.25;;;;;;;6.26;78.40;99253.28;5011170;28;20017;-80
2023/10/17 01:34:14;;;;;;;25.42;13.93;;;;;;;6.30;78.00;99254.47;5013355;28;20123;-80
2023/10/17 01:36:42;;;;;;;33.33;15.25;;;;;;;6.22;78.81;99236.16;5028233;28;22110;-80
2023/10/17 01:39:11;;;;;;;29.00;14.65;;;;;;;6.24;79.20;99249.22;4992696;28;20035;-80
2023/10/17 01:41:48;;;;;;;25.48;15.07;;;;;;;6.29;79.45;99244.09;4992713;28;20035;-80
2023/10/17 01:44:14;;;;;;;31.75;13.75;;;;;;;6.36;79.80;99236.91;4999768;28;20083;-80
2023/10/17 01:46:43;;;;;;;21.85;13.55;;;;;;;6.37;79.75;99236.72;5009429;28;20036;-80
2023/10/17 01:49:13;;;;;;;26.02;14.80;;;;;;;6.34;79.50;99241.59;4994057;28;20112;-80
2023/10/17 01:51:42;;;;;;;25.73;14.95;;;;;;;6.44;79.92;99253.41;5025101;28;20029;-80
2023/10/17 01:54:14;;;;;;;19.02;12.25;;;;;;;6.43;79.72;99232.38;5008920;28;20120;-80
2023/10/17 01:56:40;;;;;;;18.58;13.13;;;;;;;6.51;79.51;99246.19;5010518;28;20034;-80
2023/10/17 01:59:48;;;;;;;19.52;12.63;;;;;;;6.46;80.28;99242.56;5009315;28;20037;-80
2023/10/17 02:01:58;;;;;;;17.23;11.93;;;;;;;6.50;80.11;99241.94;4999803;28;20067;-80
2023/10/17 02:04:24;;;;;;;16.17;11.07;;;;;;;6.47;80.44;99250.31;5013439;28;20497;-80
2023/10/17 02:06:50;;;;;;;15.45;11.23;;;;;;;6.51;80.02;99246.19;5028166;28;20049;-80
2023/10/17 02:09:44;;;;;;;14.25;10.52;;;;;;;6.45;80.20;99255.00;5029428;28;20065;-80
2023/10/17 02:12:12;;;;;;;12.88;10.35;;;;;;;6.38;80.95;99243.63;5027548;28;20041;-80
2023/10/17 02:14:39;;;;;;;14.45;10.98;;;;;;;6.56;80.77;99253.53;5026017;28;20075;-80
2023/10/17 02:17:05;;;;;;;14.55;10.65;;;;;;;6.53;81.51;99259.28;5007870;28;20037;-80
2023/10/17 02:19:33;;;;;;;14.60;10.82;;;;;;;6.39;81.22;99247.91;5029888;28;20041;-80
2023/10/17 02:21:58;;;;;;;14.88;10.73;;;;;;;6.57;81.05;99257.81;4993588;28;20041;-80
2023/10/17 02:24:25;;;;;;;15.35;10.93;;;;;;;6.55;80.99;99246.59;5011315;28;20070;-80
2023/10/17 02:26:56;;;;;;;16.10;11.38;;;;;;;6.50;80.60;99249.91;5009912;28;20728;-80
2023/10/17 02:29:26;;;;;;;16.15;11.32;;;;;;;6.25;82.14;99248.16;4993432;28;20452;-80
2023/10/17 02:31:55;;;;;;;25.85;12.27;;;;;;;5.68;83.57;99249.75;5009446;28;20029;-80
2023/10/17 02:34:22;;;;;;;15.73;10.98;;;;;;;6.01;83.52;99252.34;5026249;28;20033;-80
2023/10/17 02:36:54;;;;;;;16.05;11.38;;;;;;;6.34;82.12;99254.84;5007822;28;20037;-80
2023/10/17 02:39:20;;;;;;;19.58;12.20;;;;;;;6.46;81.76;99251.34;5009992;28;20041;-80
2023/10/17 02:41:46;;;;;;;16.73;11.45;;;;;;;5.83;84.11;99257.47;5009144;28;20033;-80
2023/10/17 02:44:18;;;;;;;18.10;12.43;;;;;;;6.34;83.20;99254.84;5021178;28;20048;-80
2023/10/17 02:46:44;;;;;;;17.42;13.45;;;;;;;6.53;82.10;99251.31;5005914;28;20049;-80
2023/10/17 02:49:09;;;;;;;18.85;12.63;;;;;;;6.60;81.78;99250.22;4993732;28;20061;-80
2023/10/17 02:51:36;;;;;;;18.63;13.05;;;;;;;6.58;81.89;99256.78;5007540;28;20037;-80
2023/10/17 02:54:05;;;;;;;18.13;12.48;;;;;;;6.33;82.15;99247.94;5011004;28;22123;-80
2023/10/17 02:56:37;;;;;;;17.05;12.23;;;;;;;6.60;81.42;99270.63;5008243;28;20029;-80
2023/10/17 03:01:30;;;;;;;18.67;12.50;;;;;;;6.47;82.69;99263.56;5029678;28;20549;-80
2023/10/17 03:03:56;;;;;;;17.10;12.38;;;;;;;6.50;81.78;99270.28;5026503;28;20055;-80
2023/10/17 03:06:21;;;;;;;17.25;11.95;;;;;;;6.46;82.19;99256.66;5027584;28;20041;-80
2023/10/17 03:08:51;;;;;;;17.77;12.23;;;;;;;6.50;81.95;99276.41;4993480;28;20393;-80
2023/10/17 03:11:17;;;;;;;16.90;12.48;;;;;;;6.65;81.41;99268.16;5010410;28;20556;-80
2023/10/17 03:13:44;;;;;;;16.27;10.70;;;;;;;6.56;80.91;99272.91;5008531;28;20075;-81
2023/10/17 03:16:30;;;;;;;16.52;11.68;;;;;;;6.53;81.90;99269.88;5008590;28;20507;-80
2023/10/17 03:18:58;;;;;;;199.43;25.02;;;;;;;5.30;85.32;99289.31;5029501;28;20068;-80
2023/10/17 03:21:33;;;;;;;21.10;12.55;;;;;;;6.03;84.69;99269.66;5007696;28;20635;-80
2023/10/17 03:24:04;;;;;;;17.10;11.55;;;;;;;6.40;83.17;99265.44;5027399;28;20029;-80
2023/10/17 03:26:39;;;;;;;16.60;11.68;;;;;;;6.44;82.10;99256.06;5004229;28;20030;-80
2023/10/17 03:29:13;;;;;;;17.98;11.93;;;;;;;6.43;81.49;99265.00;4990740;28;20032;-80
2023/10/17 03:31:41;;;;;;;17.65;12.30;;;;;;;6.45;81.77;99267.44;5026423;28;20041;-80
2023/10/17 03:34:07;;;;;;;17.25;11.82;;;;;;;6.46;82.32;99259.31;5028212;28;20036;-80
2023/10/17 03:36:40;;;;;;;19.60;12.32;;;;;;;5.92;83.98;99256.22;5024025;28;20746;-80
2023/10/17 03:39:20;;;;;;;87.88;16.52;;;;;;;5.50;85.29;99235.53;5007469;28;20621;-80
2023/10/17 03:41:46;;;;;;;21.13;13.50;;;;;;;5.72;85.67;99248.31;5010049;28;20120;-80
2023/10/17 03:44:18;;;;;;;20.23;13.70;;;;;;;6.10;84.71;99243.13;5028010;28;20140;-80
2023/10/17 03:46:48;;;;;;;35.78;15.80;;;;;;;5.70;85.07;99234.47;5026545;28;20116;-80
2023/10/17 03:49:18;;;;;;;20.05;12.65;;;;;;;6.34;84.57;99249.56;4993894;28;20037;-80
2023/10/17 03:51:51;;;;;;;16.95;12.32;;;;;;;6.44;82.97;99244.63;5002584;28;20037;-80
2023/10/17 03:54:18;;;;;;;15.88;11.88;;;;;;;6.37;83.01;99249.16;5021782;28;21068;-80
2023/10/17 03:56:49;;;;;;;129.25;19.33;;;;;;;5.48;84.82;99246.34;5008014;28;20064;-80
2023/10/17 04:01:41;;;;;;;19.52;12.10;;;;;;;5.91;86.16;99249.31;5025301;28;20376;-80
2023/10/17 04:04:08;;;;;;;32.03;14.15;;;;;;;5.70;84.56;99236.31;5008700;28;20047;-80
2023/10/17 04:06:40;;;;;;;18.67;12.73;;;;;;;5.97;85.83;99251.13;5001852;28;20354;-80
2023/10/17 04:11:52;;;;;;;17.17;12.02;;;;;;;6.51;82.84;99237.47;5019504;28;20036;-80
2023/10/17 04:14:20;;;;;;;16.40;11.52;;;;;;;6.44;82.77;99245.44;4989721;28;20051;-80
2023/10/17 04:16:46;;;;;;;16.02;10.82;;;;;;;6.50;83.69;99255.19;5005355;28;20031;-81
2023/10/17 04:19:18;;;;;;;17.17;10.90;;;;;;;6.55;82.96;99249.25;5028056;28;20029;-80
2023/10/17 04:24:34;;;;;;;14.40;10.07;;;;;;;6.54;82.37;99243.13;5008486;28;20037;-80
2023/10/17 04:29:38;;;;;;;15.00;11.25;;;;;;;6.65;82.41;99246.94;5025075;28;20378;-80
2023/10/17 04:32:09;;;;;;;14.82;10.50;;;;;;;6.73;82.64;99254.63;5010065;28;20025;-80
2023/10/17 04:34:35;;;;;;;14.00;10.60;;;;;;;6.36;83.17;99240.38;5007393;28;21861;-81
2023/10/17 04:37:04;;;;;;;13.45;10.70;;;;;;;6.34;84.04;99244.25;5010190;28;20037;-80
2023/10/17 04:39:48;;;;;;;17.67;12.02;;;;;;;6.55;82.96;99236.00;5023534;28;20116;-81
2023/10/17 04:42:19;;;;;;;15.20;9.70;;;;;;;6.62;82.97;99239.41;5010257;28;20048;-81
2023/10/17 04:44:50;;;;;;;13.73;10.88;;;;;;;6.53;82.48;99227.44;5026791;28;20029;-81
2023/10/17 04:49:50;;;;;;;15.48;10.55;;;;;;;6.63;82.28;99231.25;5009310;28;20385;-81
2023/10/17 04:52:21;;;;;;;15.50;11.27;;;;;;;6.53;82.29;99222.94;5011097;28;20029;-80
2023/10/17 04:54:53;;;;;;;16.05;11.57;;;;;;;6.50;82.40;99227.88;5005939;28;20033;-80
2023/10/17 04:57:19;;;;;;;15.75;11.18;;;;;;;6.48;82.79;99240.53;5009521;28;20539;-81
2023/10/17 06:18:32;;;;;;;16.15;10.13;;;;;;;5.99;86.65;99310.03;5007707;28;20045;-80
2023/10/17 06:34:19;;;;;;;88.75;16.63;;;;;;;5.89;84.52;99334.31;5005243;28;20394;-80
2023/10/17 06:36:49;;;;;;;33.67;13.35;;;;;;;5.68;85.87;99328.41;5025581;28;20032;-80
2023/10/17 06:39:18;;;;;;;16.40;11.25;;;;;;;6.29;85.61;99334.22;4996548;28;20095;-80
2023/10/17 06:41:45;;;;;;;40.17;13.52;;;;;;;5.67;86.26;99337.34;5023868;28;21094;-80
2023/10/17 06:44:15;;;;;;;21.45;12.98;;;;;;;6.07;86.67;99345.06;5011315;28;20033;-80
2023/10/17 06:46:48;;;;;;;16.92;12.20;;;;;;;6.38;84.61;99331.09;5007307;28;20049;-81
2023/10/17 06:54:52;;;;;;;15.80;11.23;;;;;;;6.26;85.80;99355.81;5024912;28;20104;-80
2023/10/17 06:57:24;;;;;;;16.35;11.25;;;;;;;6.44;84.27;99345.38;5007176;28;20033;-80
2023/10/17 06:59:51;;;;;;;131.85;19.98;;;;;;;5.52;85.33;99345.50;5026473;28;20033;-80
2023/10/17 07:02:28;;;;;;;19.70;12.52;;;;;;;5.42;88.67;99339.00;5009895;28;20045;-80
2023/10/17 07:04:55;;;;;;;36.72;13.70;;;;;;;6.07;85.94;99332.84;5005924;28;20021;-80
2023/10/17 07:07:22;;;;;;;15.73;11.57;;;;;;;6.16;86.02;99327.09;5028232;28;20361;-80
2023/10/17 07:10:16;;;;;;;16.38;11.88;;;;;;;6.44;84.41;99318.88;5032475;28;20025;-80
2023/10/17 07:12:39;;;;;;;18.42;12.10;;;;;;;6.41;84.50;99332.53;5012741;28;20033;-80
2023/10/17 07:15:12;;;;;;;16.10;11.52;;;;;;;6.18;85.46;99340.16;5012107;28;20037;-81
2023/10/17 07:17:48;;;;;;;115.53;19.05;;;;;;;5.04;87.32;99328.16;4994074;28;20049;-80
2023/10/17 07:20:13;;;;;;;23.98;14.63;;;;;;;5.18;90.30;99327.16;4995375;28;20064;-80
2023/10/17 07:22:41;;;;;;;23.77;13.27;;;;;;;5.45;88.62;99334.09;4992748;28;20068;-80
2023/10/17 07:25:17;;;;;;;19.73;12.50;;;;;;;6.17;86.87;99336.69;4981495;28;20059;-80
2023/10/17 07:27:44;;;;;;;18.60;13.00;;;;;;;6.43;85.46;99328.66;5009585;28;20026;-81
2023/10/17 07:30:10;;;;;;;16.63;12.10;;;;;;;6.31;84.51;99332.97;5046668;28;20044;-80
2023/10/17 07:32:45;;;;;;;120.65;20.25;;;;;;;4.95;88.55;99324.91;5006418;28;20488;-80
2023/10/17 07:35:15;;;;;;;23.10;14.27;;;;;;;5.18;91.51;99321.84;5012971;28;20040;-80
2023/10/17 07:37:56;;;;;;;26.40;15.15;;;;;;;5.48;89.50;99328.41;4994725;28;20053;-80
2023/10/17 07:40:42;;;;;;;66.85;17.23;;;;;;;5.02;90.80;99315.13;5008080;28;20033;-80
2023/10/17 07:43:07;;;;;;;;;;;;;;;4.52;92.31;99331.47;5026304;28;20037;-80
2023/10/17 07:45:38;;;;;;;61.43;18.70;;;;;;;4.40;94.20;99328.59;5045843;28;19921;-80
2023/10/17 07:48:21;;;;;;;23.23;14.68;;;;;;;5.30;94.02;99323.72;5012560;28;20439;-79
2023/10/17 07:50:50;;;;;;;43.58;16.10;;;;;;;5.15;91.80;99319.63;4996527;28;20037;-79
2023/10/17 07:53:19;;;;;;;28.10;14.95;;;;;;;5.82;89.66;99328.16;4991939;28;20091;-80
2023/10/17 07:56:03;;;;;;;54.53;19.67;;;;;;;5.12;91.70;99333.25;4992268;28;20037;-80
2023/10/17 07:58:45;;;;;;;48.03;17.27;;;;;;;5.66;90.29;99325.13;5015038;28;20029;-80
2023/10/17 08:01:17;;;;;;;59.28;16.98;;;;;;;5.26;91.03;99329.63;4998773;28;20044;-80
2023/10/17 08:06:29;;;;;;;;;;;;;;;5.05;91.31;99341.19;4999963;28;20037;-80
2023/10/17 08:08:56;;;;;;;20.43;13.03;;;;;;;5.61;90.73;99340.81;5010850;28;19966;-80
2023/10/17 08:11:28;;;;;;;26.25;14.82;;;;;;;6.39;88.26;99326.63;5009188;28;20113;-80
2023/10/17 08:14:05;;;;;;;22.52;13.88;;;;;;;6.86;85.66;99341.31;5012214;28;20029;-80
2023/10/17 08:16:32;;;;;;;16.67;11.40;;;;;;;6.97;84.19;99322.06;5004425;28;20190;-79
2023/10/17 08:19:14;;;;;;;17.10;11.57;;;;;;;7.00;83.36;99325.09;4996839;28;20035;-80
2023/10/17 08:21:49;;;;;;;17.88;11.88;;;;;;;7.00;83.59;99316.31;5025256;28;20017;-80
2023/10/17 08:24:16;;;;;;;19.38;12.23;;;;;;;7.08;82.74;99330.16;4996287;28;20022;-80
2023/10/17 08:26:42;;;;;;;18.33;11.35;;;;;;;7.11;83.28;99332.38;4993440;28;20488;-81
2023/10/17 08:29:10;;;;;;;18.33;12.73;;;;;;;7.11;82.69;99329.72;5028743;28;20115;-80
2023/10/17 08:31:36;;;;;;;17.75;12.35;;;;;;;7.12;82.41;99325.25;5008931;28;20029;-80
2023/10/17 08:36:49;;;;;;;17.75;12.63;;;;;;;7.22;82.32;99329.03;5025436;28;20499;-80
2023/10/17 08:42:05;;;;;;;18.33;12.73;;;;;;;7.10;83.02;99336.06;5023561;28;20033;-80
2023/10/17 08:44:31;;;;;;;25.90;15.52;;;;;;;6.99;83.68;99336.72;5023184;28;20171;-80
2023/10/17 08:46:57;;;;;;;29.52;15.77;;;;;;;6.30;86.00;99333.19;5027876;28;20022;-80
2023/10/17 08:49:23;;;;;;;23.55;15.05;;;;;;;6.98;85.09;99327.16;5030483;28;20055;-80
2023/10/17 08:51:49;;;;;;;45.17;18.02;;;;;;;5.86;87.24;99337.34;5009919;28;20404;-79
2023/10/17 08:54:18;;;;;;;27.77;18.45;;;;;;;6.58;87.04;99328.38;5015103;28;20171;-80
2023/10/17 08:56:45;;;;;;;27.67;17.10;;;;;;;6.98;84.80;99329.81;5009856;28;20609;-80
2023/10/17 08:59:11;;;;;;;25.92;16.80;;;;;;;7.04;84.44;99325.47;5013560;28;20072;-80
2023/10/17 09:01:37;;;;;;;25.02;15.05;;;;;;;7.25;83.07;99325.16;5030132;28;20037;-79
2023/10/17 09:04:03;;;;;;;23.70;14.70;;;;;;;7.28;81.95;99322.88;5009710;28;20033;-80
2023/10/17 09:06:29;;;;;;;48.83;18.75;;;;;;;6.04;86.64;99334.88;4975919;28;21655;-79
2023/10/17 09:09:17;;;;;;;30.58;18.33;;;;;;;6.29;87.43;99331.56;5010145;28;20044;-80
2023/10/17 09:12:01;;;;;;;38.80;19.02;;;;;;;5.76;88.93;99329.00;5009179;28;20057;-80
2023/10/17 09:14:29;;;;;;;25.92;16.40;;;;;;;6.88;86.20;99316.16;5015001;28;20086;-80
2023/10/17 09:17:11;;;;;;;39.20;19.60;;;;;;;6.50;87.18;99312.72;5013854;28;20473;-80
2023/10/17 09:19:50;;;;;;;32.42;18.58;;;;;;;5.78;89.19;99319.00;5009527;28;20049;-79
2023/10/17 09:22:17;;;;;;;34.03;18.10;;;;;;;6.80;87.29;99322.56;5013750;28;20774;-79
2023/10/17 09:24:50;;;;;;;30.40;18.65;;;;;;;6.98;86.29;99315.72;5023341;28;20413;-79
2023/10/17 09:27:17;;;;;;;30.50;17.35;;;;;;;7.05;86.14;99306.69;5030344;28;20029;-80
2023/10/17 09:29:50;;;;;;;26.92;17.85;;;;;;;7.07;85.92;99309.97;5010991;28;20039;-79
2023/10/17 09:32:35;;;;;;;26.80;16.67;;;;;;;6.50;87.87;99307.41;5011126;28;20473;-79
2023/10/17 09:35:13;;;;;;;28.80;16.90;;;;;;;6.99;86.74;99307.53;5024224;28;20033;-79
2023/10/17 09:37:43;;;;;;;27.05;16.42;;;;;;;6.90;87.70;99297.41;5028409;28;20400;-79
2023/10/17 09:40:13;;;;;;;22.70;16.20;;;;;;;7.60;82.92;99314.84;5010130;28;20481;-79
2023/10/17 09:42:46;;;;;;;25.17;15.35;;;;;;;7.69;81.43;99301.06;4994995;28;20029;-81
2023/10/17 09:45:13;;;;;;;21.45;14.65;;;;;;;7.54;83.03;99312.03;5030832;28;20023;-80
2023/10/17 09:47:47;;;;;;;21.20;14.40;;;;;;;7.75;81.89;99289.59;5010962;28;20041;-80
2023/10/17 09:50:16;;;;;;;25.95;14.98;;;;;;;7.85;81.57;99302.34;5007917;28;20028;-80
2023/10/17 09:52:45;;;;;;;23.52;14.95;;;;;;;7.65;82.64;99304.38;5012258;28;20031;-80
2023/10/17 09:55:14;;;;;;;21.90;14.38;;;;;;;7.75;83.14;99297.56;5028631;28;20495;-80
2023/10/17 09:57:43;;;;;;;17.85;13.07;;;;;;;7.96;81.60;99285.69;5026359;28;20030;-80
2023/10/17 10:00:25;;;;;;;17.67;11.95;;;;;;;8.07;80.68;99277.78;5032309;28;20033;-80
2023/10/17 10:02:52;;;;;;;18.75;11.65;;;;;;;7.99;81.70;99282.59;5028825;28;20677;-80
2023/10/17 10:05:19;;;;;;;20.95;12.48;;;;;;;8.02;81.49;99272.31;4995450;28;20536;-80
2023/10/17 10:07:45;;;;;;;19.50;12.93;;;;;;;8.00;82.28;99290.34;5009045;28;20033;-80
2023/10/17 10:10:42;;;;;;;15.13;11.25;;;;;;;8.20;81.45;99296.25;5010475;28;20041;-80
2023/10/17 10:13:12;;;;;;;15.45;11.82;;;;;;;8.40;79.95;99285.41;5024842;28;20377;-80
2023/10/17 10:15:53;;;;;;;15.23;10.68;;;;;;;8.28;80.50;99287.19;4982910;28;20026;-80
2023/10/17 10:18:40;;;;;;;25.67;12.18;;;;;;;8.40;81.16;99289.91;5010591;28;20030;-80
2023/10/17 10:21:12;;;;;;;12.25;9.35;;;;;;;8.55;79.25;99285.81;5007318;28;20036;-80
2023/10/17 10:23:39;;;;;;;12.73;8.93;;;;;;;8.63;79.28;99280.19;5021675;28;20044;-80
2023/10/17 10:26:19;;;;;;;13.73;8.05;;;;;;;8.67;79.04;99276.03;5018196;28;20025;-80
2023/10/17 10:28:51;;;;;;;16.33;10.90;;;;;;;8.45;80.97;99279.41;5010938;28;20094;-79
2023/10/17 10:31:22;;;;;;;11.98;8.32;;;;;;;8.66;79.61;99263.78;5028788;28;20668;-80
2023/10/17 10:33:56;;;;;;;13.70;9.65;;;;;;;8.75;78.91;99259.78;5019790;28;20027;-80
2023/10/17 10:36:26;;;;;;;19.27;12.55;;;;;;;8.36;80.32;99264.81;5015237;28;20030;-80
2023/10/17 10:38:55;;;;;;;17.08;10.93;;;;;;;8.00;81.15;99263.75;5000329;28;20043;-79
2023/10/17 10:41:25;;;;;;;17.77;11.43;;;;;;;7.61;83.36;99266.00;5012923;28;20124;-79
2023/10/17 10:43:58;;;;;;;15.73;10.55;;;;;;;7.58;83.81;99256.63;5005392;28;20095;-79
2023/10/17 10:46:24;;;;;;;18.55;11.60;;;;;;;7.57;84.08;99268.28;5027786;28;20091;-79
2023/10/17 10:48:53;;;;;;;14.07;10.95;;;;;;;7.61;85.54;99266.00;5006320;28;20029;-79
2023/10/17 10:51:19;;;;;;;12.15;8.75;;;;;;;8.32;83.66;99257.25;5023181;28;20102;-79
2023/10/17 10:53:49;;;;;;;12.60;9.93;;;;;;;8.17;82.43;99262.13;5023849;28;20041;-79
2023/10/17 10:56:15;;;;;;;17.27;10.77;;;;;;;8.09;82.24;99246.47;5013385;28;20040;-79
2023/10/17 10:58:51;;;;;;;13.77;9.98;;;;;;;7.92;82.38;99250.78;5013960;28;20030;-79
2023/10/17 11:01:18;;;;;;;12.48;8.63;;;;;;;8.70;81.13;99245.50;5008322;28;20029;-80
2023/10/17 11:03:48;;;;;;;16.83;9.65;;;;;;;7.89;81.34;99232.59;5008612;28;20511;-79
2023/10/17 11:06:15;;;;;;;12.20;8.40;;;;;;;8.34;82.53;99234.97;5010915;28;20491;-79
2023/10/17 11:08:45;;;;;;;9.80;7.80;;;;;;;8.48;81.12;99234.56;5025052;28;20495;-80
2023/10/17 11:11:12;;;;;;;13.40;8.93;;;;;;;8.25;80.25;99234.44;5014802;28;20033;-80
2023/10/17 11:13:41;;;;;;;14.50;8.55;;;;;;;8.38;81.62;99234.28;5014204;28;20501;-79
2023/10/17 11:16:07;;;;;;;11.85;9.35;;;;;;;9.16;79.69;99221.66;5027837;28;20022;-80
2023/10/17 11:18:34;;;;;;;20.55;13.85;;;;;;;8.48;80.68;99215.13;5032245;28;20043;-79
2023/10/17 11:21:00;;;;;;;21.05;14.20;;;;;;;8.34;83.65;99214.50;5013021;28;20492;-79
2023/10/17 11:23:29;;;;;;;26.30;16.15;;;;;;;8.60;80.94;99214.13;5014335;28;20373;-80
2023/10/17 11:25:59;;;;;;;10.60;7.13;;;;;;;9.35;80.88;99214.41;5014402;28;20075;-80
2023/10/17 11:28:27;;;;;;;20.95;13.80;;;;;;;8.58;81.63;99215.41;5014542;28;20028;-80
2023/10/17 11:30:53;;;;;;;20.63;14.52;;;;;;;8.02;82.70;99202.38;5013050;28;20034;-80
2023/10/17 11:33:28;;;;;;;16.67;12.20;;;;;;;8.48;82.39;99202.63;5008491;28;20040;-80
2023/10/17 11:35:53;;;;;;;19.35;14.43;;;;;;;7.70;83.57;99200.94;5015514;28;20025;-79
2023/10/17 11:38:35;;;;;;;21.45;13.70;;;;;;;7.66;84.16;99192.59;5011743;28;20368;-79
2023/10/17 11:41:03;;;;;;;19.77;12.15;;;;;;;7.77;82.69;99199.84;5006537;28;20065;-79
2023/10/17 11:43:28;;;;;;;12.25;8.57;;;;;;;8.83;83.05;99192.91;5028383;28;20041;-80
2023/10/17 11:45:56;;;;;;;15.52;11.52;;;;;;;8.93;80.73;99195.00;5012033;28;20377;-79
2023/10/17 11:48:32;;;;;;;10.25;8.07;;;;;;;9.39;80.74;99181.69;5013831;28;20124;-80
2023/10/17 11:51:07;;;;;;;13.07;9.00;;;;;;;8.63;80.25;99191.56;5031671;28;20392;-79
2023/10/17 11:53:33;;;;;;;15.38;10.25;;;;;;;8.24;80.97;99175.13;5030927;28;20182;-79
2023/10/17 11:56:01;;;;;;;16.00;11.10;;;;;;;8.23;81.59;99170.81;5000809;28;20025;-79
2023/10/17 11:58:29;;;;;;;17.17;11.55;;;;;;;8.27;82.46;99180.03;5011534;28;20037;-79
2023/10/17 12:00:55;;;;;;;19.45;12.85;;;;;;;8.41;81.83;99175.31;4990823;28;20041;-80
2023/10/17 12:03:20;;;;;;;14.98;11.60;;;;;;;8.52;81.66;99165.78;5007180;28;20037;-80
2023/10/17 12:05:47;;;;;;;14.88;12.00;;;;;;;9.01;82.13;99176.03;5008900;28;20580;-79
2023/10/17 12:08:21;;;;;;;14.98;12.52;;;;;;;8.81;81.31;99188.84;5029832;28;20392;-79
2023/10/17 12:10:50;;;;;;;18.77;11.52;;;;;;;8.50;81.19;99181.13;5033753;28;20035;-79
2023/10/17 12:13:17;;;;;;;17.17;12.77;;;;;;;8.27;82.15;99182.69;5010431;28;20107;-79
2023/10/17 12:15:44;;;;;;;8.88;6.88;;;;;;;9.35;83.27;99167.22;5007876;28;20512;-79
2023/10/17 12:18:10;;;;;;;15.55;10.48;;;;;;;8.87;81.48;99164.78;5013079;28;20025;-79
2023/10/17 12:20:40;;;;;;;8.18;6.78;;;;;;;10.08;79.68;99150.63;5015897;28;20045;-79
2023/10/17 12:23:08;;;;;;;11.35;9.27;;;;;;;9.26;79.39;99162.50;5016450;28;20116;-80
2023/10/17 12:25:34;;;;;;;12.93;8.40;;;;;;;8.94;78.59;99156.69;5008379;28;20417;-80
2023/10/17 12:28:02;;;;;;;7.90;7.10;;;;;;;8.80;77.15;99164.06;5032275;28;20060;-80
2023/10/17 12:30:27;;;;;;;10.43;8.07;;;;;;;8.69;75.50;99158.75;4981233;28;20037;-79
2023/10/17 12:32:55;;;;;;;8.30;5.82;;;;;;;8.82;76.42;99166.53;5013065;28;20109;-79
2023/10/17 12:35:21;;;;;;;9.38;6.53;;;;;;;9.04;75.59;99165.72;5014737;28;20510;-79
2023/10/17 12:37:50;;;;;;;6.80;6.10;;;;;;;9.36;77.14;99160.06;5014803;28;20106;-79
2023/10/17 12:40:23;;;;;;;7.28;5.55;;;;;;;8.96;74.66;99158.09;5014194;28;20042;-79
2023/10/17 12:42:50;;;;;;;6.18;5.53;;;;;;;9.66;78.32;99147.38;5006007;28;20036;-79
2023/10/17 12:45:17;;;;;;;10.43;6.13;;;;;;;9.57;73.78;99138.13;5015820;28;20469;-79
2023/10/17 12:47:47;;;;;;;8.98;6.55;;;;;;;9.55;74.94;99148.22;5012917;28;20045;-80
2023/10/17 12:50:14;;;;;;;8.57;6.13;;;;;;;9.55;74.55;99146.38;4995527;28;20049;-80
2023/10/17 12:52:40;;;;;;;6.65;5.95;;;;;;;9.54;73.84;99144.75;5010814;28;20044;-79
2023/10/17 12:55:07;;;;;;;6.63;5.18;;;;;;;9.50;71.72;99151.59;5013158;28;20899;-80
2023/10/17 12:57:38;;;;;;;6.25;4.72;;;;;;;10.87;77.74;99134.47;5018604;28;20026;-80
2023/10/17 13:00:10;;;;;;;9.48;6.10;;;;;;;11.03;74.50;99132.84;5016596;28;20025;-80
2023/10/17 13:02:39;;;;;;;11.35;6.75;;;;;;;10.24;73.07;99133.91;5030673;28;20032;-80
2023/10/17 13:05:09;;;;;;;7.85;6.22;;;;;;;9.58;72.59;99132.59;5029008;28;20413;-80
2023/10/17 13:07:34;;;;;;;5.60;5.05;;;;;;;9.87;77.29;99136.13;5033831;28;20025;-80
2023/10/17 13:10:00;;;;;;;7.28;5.15;;;;;;;10.34;71.73;99126.91;4994957;28;20080;-80
2023/10/17 13:12:25;;;;;;;9.68;5.32;;;;;;;9.98;71.06;99119.25;5008994;28;20042;-80
2023/10/17 13:14:51;;;;;;;6.82;6.13;;;;;;;9.38;71.04;99102.03;4996206;28;20056;-80
2023/10/17 13:17:18;;;;;;;10.77;6.20;;;;;;;10.29;72.30;99121.47;5011051;28;20037;-80
2023/10/17 13:19:45;;;;;;;6.05;4.50;;;;;;;11.30;73.97;99099.84;5005432;28;21638;-80
2023/10/17 13:22:16;;;;;;;6.05;5.38;;;;;;;10.73;68.93;99111.00;5012632;28;20032;-80
2023/10/17 13:24:43;;;;;;;6.22;4.60;;;;;;;10.62;71.05;99109.19;5006700;28;20936;-80
2023/10/17 13:27:08;;;;;;;9.02;5.47;;;;;;;10.25;68.40;99109.66;5026330;28;20018;-80
2023/10/17 13:29:33;;;;;;;5.72;4.38;;;;;;;10.63;74.50;99106.31;4978767;28;25588;-80
2023/10/17 13:32:00;;;;;;;6.75;5.13;;;;;;;10.65;68.49;99098.88;4992086;28;20046;-80
2023/10/17 13:34:27;;;;;;;5.88;4.93;;;;;;;11.23;70.52;99103.75;5008460;28;20500;-79
2023/10/17 13:36:53;;;;;;;9.25;5.22;;;;;;;10.93;67.65;99085.41;5030078;28;20029;-80
2023/10/17 13:39:22;;;;;;;6.63;5.50;;;;;;;10.79;68.14;99088.69;5029131;28;20369;-80
2023/10/17 13:41:48;;;;;;;5.97;4.78;;;;;;;11.24;66.57;99081.31;5028360;28;20026;-80
2023/10/17 13:44:15;;;;;;;6.30;5.32;;;;;;;10.97;66.15;99080.38;5012425;28;20036;-80
2023/10/17 13:46:40;;;;;;;5.88;4.60;;;;;;;10.92;64.40;99072.31;5015588;28;20384;-80
2023/10/17 13:49:05;;;;;;;5.45;4.95;;;;;;;11.65;65.60;99072.75;5011617;28;20108;-80
2023/10/17 13:51:34;;;;;;;6.72;4.35;;;;;;;11.72;70.16;99072.59;5011543;28;20033;-80
2023/10/17 13:54:00;;;;;;;5.88;3.25;;;;;;;12.27;68.72;99064.34;5033503;28;20025;-80